Time;durP1;ratioP1;P1;durP2;ratioP2;P2;SDS_P1;SDS_P2;PMS_P1;PMS_P2;Temp;Humidity;BMP_temperature;BMP_pressure;BME280_temperature;BME280_humidity;BME280_pressure;Samples;Min_cycle;Max_cycle;Signal;HPM_P1;HPM_P2
2022/06/09 00:01:11;;;;;;;13.60;10.68;;;16.30;99.90;;;;;;4947985;28;20480;-84
2022/06/09 00:03:51;;;;;;;12.55;10.55;;;16.30;99.90;;;;;;4948632;29;20486;-83
2022/06/09 00:06:19;;;;;;;13.43;11.00;;;16.20;99.90;;;;;;4949751;28;20499;-86
2022/06/09 00:08:51;;;;;;;14.45;10.35;;;16.20;99.90;;;;;;4948930;29;20508;-83
2022/06/09 00:11:24;;;;;;;13.40;10.18;;;16.20;99.90;;;;;;4948727;28;20408;-85
2022/06/09 00:13:53;;;;;;;13.77;11.48;;;16.20;99.90;;;;;;4942211;29;20763;-84
2022/06/09 00:16:21;;;;;;;13.60;10.70;;;16.20;99.90;;;;;;4949120;29;20400;-85
2022/06/09 00:18:49;;;;;;;14.00;10.50;;;16.10;99.90;;;;;;4951291;28;20941;-83
2022/06/09 00:21:16;;;;;;;12.95;9.80;;;16.10;99.90;;;;;;4950316;28;20408;-84
2022/06/09 00:23:44;;;;;;;11.75;9.38;;;16.10;99.90;;;;;;4957743;28;20406;-84
2022/06/09 00:26:11;;;;;;;14.15;10.45;;;16.20;99.90;;;;;;4953258;28;20408;-85
2022/06/09 00:28:39;;;;;;;10.82;9.15;;;16.20;99.90;;;;;;4944445;28;20413;-84
2022/06/09 00:31:06;;;;;;;12.45;9.38;;;16.20;99.90;;;;;;4953500;28;20401;-83
2022/06/09 00:33:34;;;;;;;12.40;10.13;;;16.20;99.90;;;;;;4963783;28;20553;-85
2022/06/09 00:36:02;;;;;;;12.10;9.70;;;16.10;99.90;;;;;;4971981;28;20403;-85
2022/06/09 00:38:30;;;;;;;11.33;10.00;;;16.10;99.90;;;;;;4957306;28;20494;-83
2022/06/09 00:40:59;;;;;;;12.40;9.60;;;16.10;99.90;;;;;;4958157;28;20406;-84
2022/06/09 00:43:27;;;;;;;12.27;9.80;;;16.10;99.90;;;;;;4971710;28;20796;-84
2022/06/09 00:46:10;;;;;;;12.23;10.25;;;16.20;99.90;;;;;;4978450;28;20882;-83
2022/06/09 00:49:16;;;;;;;13.45;10.88;;;16.10;99.90;;;;;;4938355;28;20400;-84
2022/06/09 00:51:53;;;;;;;13.00;10.82;;;16.10;99.90;;;;;;4944637;28;20441;-84
2022/06/09 00:54:25;;;;;;;13.05;10.70;;;16.10;99.90;;;;;;4958579;28;20896;-84
2022/06/09 00:57:02;;;;;;;13.73;10.88;;;16.10;99.90;;;;;;4972776;28;20414;-84
2022/06/09 00:59:31;;;;;;;13.97;10.20;;;16.10;99.90;;;;;;4979214;28;20411;-86
2022/06/09 01:02:00;;;;;;;11.18;9.57;;;16.10;99.90;;;;;;4978617;28;20393;-84
2022/06/09 01:04:31;;;;;;;11.82;9.20;;;16.10;99.90;;;;;;4976868;28;20492;-84
2022/06/09 01:07:05;;;;;;;12.27;10.50;;;16.10;99.90;;;;;;4971452;28;20414;-84
2022/06/09 01:09:32;;;;;;;12.20;9.63;;;16.10;99.90;;;;;;5039548;28;20402;-85
2022/06/09 01:12:00;;;;;;;13.27;9.68;;;16.10;99.90;;;;;;4964115;28;20416;-84
2022/06/09 01:14:32;;;;;;;11.68;9.15;;;16.10;99.90;;;;;;4939078;28;20414;-85
2022/06/09 01:17:48;;;;;;;11.15;9.30;;;16.10;99.90;;;;;;4971461;28;20407;-85
2022/06/09 01:20:57;;;;;;;11.80;9.37;;;16.10;99.90;;;;;;4867431;29;20436;-84
2022/06/09 01:23:33;;;;;;;10.53;8.77;;;16.10;99.90;;;;;;4969874;28;20410;-84
2022/06/09 01:26:22;;;;;;;11.93;9.40;;;16.10;99.90;;;;;;4971144;28;20405;-84
2022/06/09 01:28:54;;;;;;;10.05;8.20;;;16.00;99.90;;;;;;4980272;28;20422;-84
2022/06/09 01:31:22;;;;;;;10.57;8.68;;;16.00;99.90;;;;;;4970466;28;20470;-85
2022/06/09 01:33:55;;;;;;;11.75;8.55;;;16.00;99.90;;;;;;4975513;28;20908;-82
2022/06/09 01:36:36;;;;;;;10.30;8.85;;;16.00;99.90;;;;;;4968991;28;20397;-83
2022/06/09 01:39:05;;;;;;;9.20;7.50;;;16.00;99.90;;;;;;4969214;28;20864;-83
2022/06/09 01:41:34;;;;;;;9.43;8.07;;;16.00;99.90;;;;;;4957937;28;20389;-84
2022/06/09 01:44:03;;;;;;;9.57;7.82;;;16.00;99.90;;;;;;4971585;28;20434;-84
2022/06/09 01:46:36;;;;;;;10.15;7.75;;;16.00;99.90;;;;;;4953565;28;20882;-85
2022/06/09 01:49:05;;;;;;;8.27;7.10;;;16.00;99.90;;;;;;4968735;28;20402;-85
2022/06/09 01:51:36;;;;;;;10.30;7.30;;;16.00;99.90;;;;;;4963294;28;20408;-84
2022/06/09 01:54:09;;;;;;;9.65;7.85;;;16.00;99.90;;;;;;4960726;28;20416;-84
2022/06/09 01:56:49;;;;;;;8.52;7.43;;;15.90;99.90;;;;;;4949965;28;20414;-84
2022/06/09 01:59:25;;;;;;;8.93;7.03;;;15.90;99.90;;;;;;4968769;28;20973;-83
2022/06/09 02:01:55;;;;;;;8.43;7.10;;;15.90;99.90;;;;;;4970579;28;20406;-84
2022/06/09 02:04:33;;;;;;;8.00;7.00;;;15.90;99.90;;;;;;4970425;28;20410;-83
2022/06/09 02:07:04;;;;;;;8.45;6.53;;;15.90;99.90;;;;;;4971879;28;20410;-83
2022/06/09 02:09:34;;;;;;;7.15;6.13;;;15.90;99.90;;;;;;4973480;28;20453;-84
2022/06/09 02:12:07;;;;;;;9.13;7.03;;;15.90;99.90;;;;;;4957208;28;20408;-83
2022/06/09 02:14:48;;;;;;;8.32;6.47;;;15.90;99.90;;;;;;4966968;28;20476;-84
2022/06/09 02:17:18;;;;;;;7.53;6.03;;;15.90;99.90;;;;;;4973296;28;20407;-83
2022/06/09 02:19:47;;;;;;;8.70;6.70;;;15.90;99.90;;;;;;4971011;28;20389;-85
2022/06/09 02:22:15;;;;;;;6.88;6.10;;;15.90;99.90;;;;;;4970268;28;20394;-84
2022/06/09 02:24:43;;;;;;;9.50;6.57;;;15.90;99.90;;;;;;4970339;28;20394;-85
2022/06/09 02:27:10;;;;;;;7.88;6.68;;;15.90;99.90;;;;;;4954166;28;20406;-83
2022/06/09 02:29:38;;;;;;;9.75;6.95;;;15.80;99.90;;;;;;4972404;28;20491;-84
2022/06/09 02:32:06;;;;;;;7.80;6.57;;;15.80;99.90;;;;;;4970491;28;20942;-84
2022/06/09 02:34:33;;;;;;;8.00;6.57;;;15.80;99.90;;;;;;4977130;28;20417;-84
2022/06/09 02:37:01;;;;;;;9.13;6.70;;;15.80;99.90;;;;;;4974052;28;20473;-84
2022/06/09 02:39:28;;;;;;;9.30;6.13;;;15.80;99.90;;;;;;4954539;28;20391;-84
2022/06/09 02:41:56;;;;;;;8.52;6.95;;;15.80;99.90;;;;;;4959108;28;20406;-85
2022/06/09 02:44:23;;;;;;;8.63;6.90;;;15.80;99.90;;;;;;4961132;28;20462;-84
2022/06/09 02:46:51;;;;;;;8.38;6.70;;;15.70;99.90;;;;;;4974213;28;20410;-84
2022/06/09 02:49:18;;;;;;;8.10;6.37;;;15.70;99.90;;;;;;4964834;28;20401;-82
2022/06/09 02:51:47;;;;;;;8.03;6.80;;;15.70;99.90;;;;;;4956321;28;20413;-83
2022/06/09 02:54:14;;;;;;;7.93;6.33;;;15.70;99.90;;;;;;4958975;28;20549;-84
2022/06/09 02:56:43;;;;;;;7.43;6.63;;;15.70;99.90;;;;;;4972631;28;20567;-83
2022/06/09 02:59:11;;;;;;;8.07;6.93;;;15.70;99.90;;;;;;4976105;28;20426;-82
2022/06/09 03:01:39;;;;;;;8.98;6.70;;;15.60;99.90;;;;;;4969892;28;20429;-85
2022/06/09 03:04:08;;;;;;;9.60;6.63;;;15.60;99.90;;;;;;4970046;28;20904;-84
2022/06/09 03:06:37;;;;;;;9.68;6.85;;;15.60;99.90;;;;;;4976297;28;20416;-84
2022/06/09 03:09:04;;;;;;;9.75;6.95;;;15.60;99.90;;;;;;4952622;28;20739;-84
2022/06/09 03:11:32;;;;;;;11.35;6.97;;;15.60;99.90;;;;;;4972920;28;20492;-84
2022/06/09 03:13:59;;;;;;;8.00;6.30;;;15.60;99.90;;;;;;4958072;28;20444;-84
2022/06/09 03:16:27;;;;;;;7.87;6.50;;;15.50;99.90;;;;;;4970351;28;20765;-83
2022/06/09 03:18:54;;;;;;;9.07;6.75;;;15.60;99.90;;;;;;4973797;28;20407;-84
2022/06/09 03:21:23;;;;;;;8.73;6.13;;;15.60;99.90;;;;;;4971203;28;20784;-84
2022/06/09 03:23:51;;;;;;;8.02;6.88;;;15.60;99.90;;;;;;4961972;28;20892;-85
2022/06/09 03:26:20;;;;;;;8.88;6.75;;;15.60;99.90;;;;;;4973497;28;20418;-85
2022/06/09 03:28:47;;;;;;;8.40;6.70;;;15.60;99.90;;;;;;4952583;28;20416;-83
2022/06/09 03:31:17;;;;;;;10.40;7.07;;;15.60;99.90;;;;;;4952745;28;20407;-84
2022/06/09 03:33:46;;;;;;;8.38;6.80;;;15.60;99.90;;;;;;4969323;28;20411;-84
2022/06/09 03:36:13;;;;;;;7.47;6.60;;;15.60;99.90;;;;;;4970141;28;20525;-84
2022/06/09 03:38:41;;;;;;;8.93;7.07;;;15.60;99.90;;;;;;4969539;28;20409;-83
2022/06/09 03:41:08;;;;;;;9.07;7.20;;;15.60;99.90;;;;;;4971918;28;20794;-84
2022/06/09 03:43:36;;;;;;;8.50;7.45;;;15.60;99.90;;;;;;4966292;28;20417;-85
2022/06/09 03:46:04;;;;;;;8.48;7.35;;;15.60;99.90;;;;;;4976876;28;20426;-86
2022/06/09 03:48:31;;;;;;;8.60;7.40;;;15.60;99.90;;;;;;4975132;28;21564;-85
2022/06/09 03:50:59;;;;;;;10.13;7.60;;;15.60;99.90;;;;;;4972214;28;20402;-84
2022/06/09 03:53:27;;;;;;;10.18;8.48;;;15.50;99.90;;;;;;4971739;28;20410;-82
2022/06/09 03:55:57;;;;;;;9.88;8.43;;;15.50;99.90;;;;;;4965684;28;20506;-83
2022/06/09 03:58:24;;;;;;;9.23;7.90;;;15.50;99.90;;;;;;5039805;28;20414;-82
2022/06/09 04:00:53;;;;;;;9.63;8.52;;;15.60;99.90;;;;;;4945062;28;20403;-85
2022/06/09 04:03:22;;;;;;;11.07;8.80;;;15.60;99.90;;;;;;4972905;28;20497;-84
2022/06/09 04:05:49;;;;;;;10.80;8.45;;;15.60;99.90;;;;;;4968458;28;20452;-85
2022/06/09 04:08:18;;;;;;;9.73;8.00;;;15.60;99.90;;;;;;4960429;28;20919;-83
2022/06/09 04:10:45;;;;;;;10.05;8.45;;;15.60;99.90;;;;;;4955297;28;20390;-84
2022/06/09 04:13:13;;;;;;;10.57;8.70;;;15.50;99.90;;;;;;4964557;28;20411;-84
2022/06/09 04:15:42;;;;;;;10.82;8.65;;;15.50;99.90;;;;;;4965105;28;20429;-84
2022/06/09 04:18:10;;;;;;;11.32;8.82;;;15.50;99.90;;;;;;4976260;28;20494;-86
2022/06/09 04:20:38;;;;;;;11.00;8.13;;;15.60;99.90;;;;;;4955563;28;20433;-86
2022/06/09 04:23:05;;;;;;;11.60;8.27;;;15.60;99.90;;;;;;4956880;28;20403;-84
2022/06/09 04:25:35;;;;;;;10.68;8.27;;;15.50;99.90;;;;;;4972673;28;20472;-84
2022/06/09 04:28:02;;;;;;;10.13;8.40;;;15.50;99.90;;;;;;4975141;28;20442;-83
2022/06/09 04:30:30;;;;;;;10.43;8.98;;;15.40;99.90;;;;;;4954805;28;20422;-83
2022/06/09 04:32:58;;;;;;;12.85;9.38;;;15.50;99.90;;;;;;4967697;28;21061;-86
2022/06/09 04:35:26;;;;;;;11.23;9.38;;;15.50;99.90;;;;;;4978583;28;20475;-86
2022/06/09 04:38:00;;;;;;;12.38;9.10;;;15.40;99.90;;;;;;4976358;28;20456;-83
2022/06/09 04:40:32;;;;;;;10.82;8.13;;;15.40;99.90;;;;;;4971775;28;20399;-84
2022/06/09 04:43:01;;;;;;;10.15;8.38;;;15.40;99.90;;;;;;4973587;28;20824;-85
2022/06/09 04:45:29;;;;;;;10.95;9.27;;;15.40;99.90;;;;;;4954500;28;20448;-84
2022/06/09 04:47:57;;;;;;;10.48;8.45;;;15.40;99.90;;;;;;4952000;28;20458;-82
2022/06/09 04:50:25;;;;;;;11.57;9.00;;;15.40;99.90;;;;;;4962511;28;20407;-85
2022/06/09 04:52:53;;;;;;;10.43;8.27;;;15.30;99.90;;;;;;4972759;28;20832;-85
2022/06/09 04:55:20;;;;;;;10.00;7.93;;;15.30;99.90;;;;;;4958143;28;20430;-85
2022/06/09 04:57:48;;;;;;;9.13;7.55;;;15.50;99.90;;;;;;4950345;28;20384;-83
2022/06/09 05:00:16;;;;;;;8.48;7.45;;;15.50;99.90;;;;;;4977514;28;20395;-85
2022/06/09 05:02:44;;;;;;;8.77;7.55;;;15.50;99.90;;;;;;4978531;28;20420;-78
2022/06/09 05:05:24;;;;;;;10.07;8.33;;;15.50;99.90;;;;;;4982367;28;20422;-78
2022/06/09 05:07:52;;;;;;;9.80;7.60;;;15.40;99.90;;;;;;4984203;28;20922;-78
2022/06/09 05:10:19;;;;;;;9.70;8.30;;;15.50;99.90;;;;;;4983716;28;20433;-78
2022/06/09 05:12:48;;;;;;;10.10;8.38;;;15.50;99.90;;;;;;4982505;28;20796;-80
2022/06/09 05:15:19;;;;;;;10.10;8.27;;;15.50;99.90;;;;;;4965467;28;20424;-79
2022/06/09 05:17:50;;;;;;;10.00;8.00;;;15.50;99.90;;;;;;4977418;28;20861;-78
2022/06/09 05:20:22;;;;;;;8.02;7.03;;;15.50;99.90;;;;;;4985852;28;20418;-78
2022/06/09 05:22:50;;;;;;;8.40;7.50;;;15.40;99.90;;;;;;4949315;28;20468;-78
2022/06/09 05:25:18;;;;;;;8.90;7.60;;;15.50;99.90;;;;;;4960745;28;20472;-78
2022/06/09 05:27:46;;;;;;;8.27;7.38;;;15.60;99.90;;;;;;4963985;28;20395;-78
2022/06/09 05:30:26;;;;;;;9.27;6.93;;;15.60;99.90;;;;;;4983938;28;20402;-78
2022/06/09 05:32:53;;;;;;;8.60;6.70;;;15.60;99.90;;;;;;4983176;28;20418;-79
2022/06/09 05:35:22;;;;;;;8.67;7.40;;;15.60;99.90;;;;;;4985126;28;20750;-78
2022/06/09 05:46:10;;;;;;;7.97;6.82;;;15.80;99.90;;;;;;4984158;28;20406;-78
2022/06/09 05:48:37;;;;;;;8.65;6.57;;;15.80;99.90;;;;;;4995524;28;20437;-79
2022/06/09 05:51:06;;;;;;;8.20;6.78;;;15.80;99.90;;;;;;4989527;28;20464;-79
2022/06/09 05:53:34;;;;;;;9.20;6.50;;;15.90;99.90;;;;;;4983815;28;20409;-79
2022/06/09 05:56:02;;;;;;;8.90;6.90;;;15.80;99.90;;;;;;4983077;28;20402;-78
2022/06/09 05:58:29;;;;;;;7.90;7.10;;;15.80;99.90;;;;;;4985695;28;20811;-78
2022/06/09 06:00:58;;;;;;;9.43;6.80;;;15.90;99.90;;;;;;4983691;28;20422;-78
2022/06/09 06:03:27;;;;;;;7.10;6.38;;;16.00;99.90;;;;;;4992163;28;20405;-79
2022/06/09 06:08:41;;;;;;;7.68;6.28;;;15.90;99.90;;;;;;4955132;28;20894;-80
2022/06/09 06:11:09;;;;;;;7.80;6.55;;;16.00;99.90;;;;;;4982077;28;20434;-80
2022/06/09 06:13:36;;;;;;;8.05;6.18;;;16.10;99.90;;;;;;4966085;28;20476;-84
2022/06/09 06:16:04;;;;;;;8.02;6.88;;;16.10;99.90;;;;;;4963803;28;20399;-79
2022/06/09 06:18:51;;;;;;;7.07;6.37;;;16.10;99.90;;;;;;4977984;28;20877;-88
2022/06/09 06:21:19;;;;;;;6.95;5.90;;;16.20;99.90;;;;;;4984174;28;20448;-80
2022/06/09 06:23:48;;;;;;;7.68;6.65;;;16.20;99.90;;;;;;4981806;28;20498;-79
2022/06/09 06:26:17;;;;;;;7.53;6.57;;;16.20;99.90;;;;;;4969951;28;20405;-81
2022/06/09 06:28:44;;;;;;;6.90;6.20;;;16.30;99.90;;;;;;4984844;28;20433;-83
2022/06/09 06:31:12;;;;;;;8.02;6.45;;;16.30;99.90;;;;;;4980018;28;20403;-80
2022/06/09 06:33:40;;;;;;;7.77;6.70;;;16.30;99.90;;;;;;4976918;28;20684;-83
2022/06/09 06:36:08;;;;;;;9.05;6.50;;;16.40;99.90;;;;;;4981983;28;20911;-83
2022/06/09 06:38:37;;;;;;;8.38;6.90;;;16.40;99.90;;;;;;4977197;28;20441;-80
2022/06/09 06:41:07;;;;;;;8.88;6.72;;;16.50;99.90;;;;;;4964892;28;20410;-83
2022/06/09 06:43:42;;;;;;;7.73;6.73;;;16.50;99.90;;;;;;4955829;28;20414;-85
2022/06/09 06:46:11;;;;;;;8.57;6.53;;;16.60;99.90;;;;;;5004898;28;20404;-83
2022/06/09 06:48:39;;;;;;;7.28;6.53;;;16.60;99.90;;;;;;4966533;28;20417;-81
2022/06/09 06:51:06;;;;;;;9.27;7.53;;;16.60;99.90;;;;;;4959400;28;20510;-85
2022/06/09 06:53:36;;;;;;;7.15;6.35;;;16.60;99.90;;;;;;4968644;28;20952;-85
2022/06/09 06:56:04;;;;;;;7.95;6.47;;;16.70;99.90;;;;;;4954620;28;20412;-84
2022/06/09 06:58:33;;;;;;;8.73;6.70;;;16.70;99.90;;;;;;4949361;28;20438;-85
2022/06/09 07:01:02;;;;;;;7.65;6.82;;;16.70;99.90;;;;;;4965831;28;20403;-84
2022/06/09 07:03:30;;;;;;;8.02;7.07;;;16.70;99.90;;;;;;4953985;28;20769;-84
2022/06/09 07:06:03;;;;;;;8.30;7.07;;;16.80;99.90;;;;;;4953004;28;20882;-85
2022/06/09 07:08:31;;;;;;;7.53;6.72;;;16.90;99.90;;;;;;4984653;28;20921;-84
2022/06/09 07:10:59;;;;;;;8.38;7.13;;;17.00;99.90;;;;;;4970386;28;20452;-84
2022/06/09 07:13:26;;;;;;;7.38;6.40;;;17.10;99.90;;;;;;4954972;28;20413;-85
2022/06/09 07:15:54;;;;;;;7.80;7.00;;;17.00;99.90;;;;;;4964941;28;20419;-85
2022/06/09 07:18:29;;;;;;;9.00;6.60;;;17.30;99.90;;;;;;4970000;28;20395;-84
2022/06/09 07:20:57;;;;;;;7.55;6.70;;;17.40;99.90;;;;;;4969560;28;20935;-84
2022/06/09 07:23:26;;;;;;;7.30;6.40;;;17.40;99.90;;;;;;4973471;28;20418;-84
2022/06/09 07:25:55;;;;;;;7.85;6.80;;;17.40;99.90;;;;;;4962527;28;20422;-83
2022/06/09 07:28:23;;;;;;;8.37;6.50;;;17.50;99.90;;;;;;4971577;28;20410;-83
2022/06/09 07:30:56;;;;;;;7.55;6.25;;;17.50;99.90;;;;;;4956052;28;20418;-85
2022/06/09 07:33:27;;;;;;;7.10;6.40;;;17.60;99.90;;;;;;4973021;28;20425;-85
2022/06/09 07:36:00;;;;;;;7.20;6.20;;;17.60;99.90;;;;;;4940848;28;20409;-85
2022/06/09 07:38:28;;;;;;;7.35;6.30;;;17.60;99.90;;;;;;4973140;28;20947;-84
2022/06/09 07:40:56;;;;;;;7.53;5.90;;;17.60;99.90;;;;;;4956944;28;20884;-83
2022/06/09 07:43:43;;;;;;;8.70;6.07;;;17.70;99.90;;;;;;4944795;28;20428;-86
2022/06/09 07:46:11;;;;;;;9.88;6.82;;;17.80;99.90;;;;;;4975517;28;20900;-84
2022/06/09 07:48:39;;;;;;;6.83;5.93;;;17.80;99.90;;;;;;4973071;28;20398;-84
2022/06/09 07:51:17;;;;;;;8.98;6.28;;;17.80;99.90;;;;;;4975253;28;20418;-84
2022/06/09 07:53:45;;;;;;;8.20;6.10;;;17.90;99.90;;;;;;4973110;28;20415;-84
2022/06/09 07:56:13;;;;;;;6.97;6.05;;;17.90;99.90;;;;;;4972445;28;20804;-85
2022/06/09 07:58:42;;;;;;;7.35;6.00;;;17.90;99.90;;;;;;4975303;28;20399;-85
2022/06/09 08:01:10;;;;;;;6.65;5.53;;;17.90;99.90;;;;;;4949622;28;20407;-84
2022/06/09 08:03:40;;;;;;;8.27;6.10;;;17.90;99.90;;;;;;4972410;28;20398;-84
2022/06/09 08:06:10;;;;;;;6.50;5.20;;;18.00;99.90;;;;;;4962486;28;20392;-83
2022/06/09 08:08:56;;;;;;;6.60;5.65;;;18.00;99.90;;;;;;4971019;28;20452;-83
2022/06/09 08:11:32;;;;;;;6.13;5.20;;;18.00;99.90;;;;;;4955569;28;20399;-84
2022/06/09 08:14:02;;;;;;;6.78;4.75;;;18.10;99.90;;;;;;4975126;28;20413;-84
2022/06/09 08:16:30;;;;;;;6.82;5.13;;;18.30;99.90;;;;;;4973108;28;20761;-83
2022/06/09 08:19:00;;;;;;;6.13;4.90;;;18.30;99.90;;;;;;4987297;28;20484;-82
2022/06/09 08:21:28;;;;;;;6.72;5.70;;;18.40;99.90;;;;;;4955721;28;20415;-84
2022/06/09 08:24:13;;;;;;;6.43;5.20;;;18.50;99.90;;;;;;4964283;28;20410;-82
2022/06/09 08:26:42;;;;;;;6.10;5.47;;;18.60;99.90;;;;;;4971828;28;20413;-83
2022/06/09 08:29:09;;;;;;;5.40;4.77;;;18.60;99.90;;;;;;4971891;28;20410;-84
2022/06/09 08:31:37;;;;;;;6.00;4.40;;;18.50;99.90;;;;;;4962430;28;20406;-83
2022/06/09 08:34:06;;;;;;;5.32;4.70;;;18.50;99.90;;;;;;4971627;28;20843;-83
2022/06/09 08:36:33;;;;;;;5.97;5.00;;;18.50;99.90;;;;;;4973251;28;20959;-83
2022/06/09 08:39:02;;;;;;;6.13;4.95;;;18.60;99.90;;;;;;4957565;28;20441;-85
2022/06/09 08:41:50;;;;;;;6.30;4.85;;;18.70;99.90;;;;;;4972115;28;20928;-83
2022/06/09 08:44:58;;;;;;;7.72;4.70;;;18.60;99.90;;;;;;4981359;28;20400;-85
2022/06/09 08:47:48;;;;;;;6.57;4.80;;;18.70;99.90;;;;;;4915006;29;20467;-83
2022/06/09 08:50:43;;;;;;;6.05;4.78;;;18.70;99.90;;;;;;4909164;29;20869;-83
2022/06/09 08:53:25;;;;;;;6.22;4.78;;;18.80;99.90;;;;;;4959775;28;20994;-83
2022/06/09 08:56:26;;;;;;;7.25;4.68;;;18.90;99.90;;;;;;4965602;28;20434;-83
2022/06/09 08:58:56;;;;;;;6.80;4.72;;;18.80;99.90;;;;;;4944500;28;20416;-83
2022/06/09 09:01:39;;;;;;;7.85;4.88;;;18.70;99.90;;;;;;4972093;28;20448;-83
2022/06/09 09:04:35;;;;;;;5.45;4.80;;;18.60;99.90;;;;;;4971560;28;20505;-83
2022/06/09 09:07:12;;;;;;;6.47;4.40;;;18.60;99.90;;;;;;4979275;28;20468;-84
2022/06/09 09:09:40;;;;;;;6.43;4.67;;;18.60;99.90;;;;;;4964675;28;20409;-83
2022/06/09 09:12:22;;;;;;;5.18;4.53;;;18.60;99.90;;;;;;4971284;28;20484;-83
2022/06/09 09:15:30;;;;;;;5.07;4.47;;;18.60;99.90;;;;;;4971802;28;20406;-85
2022/06/09 09:18:29;;;;;;;6.85;4.38;;;18.70;99.90;;;;;;4990210;28;20412;-83
2022/06/09 09:21:31;;;;;;;5.23;4.40;;;18.80;99.90;;;;;;4965878;28;20418;-84
2022/06/09 09:24:28;;;;;;;6.07;4.63;;;19.00;99.90;;;;;;4970595;28;20480;-84
2022/06/09 09:27:28;;;;;;;6.03;4.60;;;19.10;99.90;;;;;;4968850;28;20950;-84
2022/06/09 09:30:05;;;;;;;4.18;3.70;;;19.20;99.90;;;;;;4953986;28;20411;-83
2022/06/09 09:32:43;;;;;;;4.57;3.95;;;19.20;99.90;;;;;;4985751;28;20453;-83
2022/06/09 09:35:22;;;;;;;6.30;4.40;;;19.30;99.90;;;;;;4961668;28;20465;-84
2022/06/09 09:37:53;;;;;;;6.68;4.22;;;19.50;99.90;;;;;;4956488;28;20418;-83
2022/06/09 09:40:51;;;;;;;4.90;4.40;;;19.70;99.90;;;;;;4971217;28;20410;-84
2022/06/09 09:43:26;;;;;;;5.78;4.43;;;19.60;99.90;;;;;;4939269;28;20409;-83
2022/06/09 09:45:55;;;;;;;5.75;4.38;;;19.50;99.90;;;;;;4971809;28;20433;-83
2022/06/09 09:48:23;;;;;;;6.55;4.38;;;19.50;99.90;;;;;;4963691;28;20389;-85
2022/06/09 09:51:03;;;;;;;5.30;3.85;;;19.70;99.90;;;;;;4977973;28;20411;-83
2022/06/09 09:53:35;;;;;;;5.32;3.80;;;19.80;99.90;;;;;;4970696;28;20407;-83
2022/06/09 09:56:28;;;;;;;5.15;4.03;;;19.80;99.90;;;;;;4970705;28;20407;-84
2022/06/09 09:59:00;;;;;;;4.45;3.67;;;19.90;99.90;;;;;;4965127;28;20460;-83
2022/06/09 10:10:30;;;;;;;5.45;3.40;;;19.50;99.90;;;;;;4938624;28;20411;-83
2022/06/09 10:12:58;;;;;;;4.20;3.28;;;19.70;99.90;;;;;;4952512;28;20811;-84
2022/06/09 10:15:43;;;;;;;3.67;3.38;;;19.70;99.90;;;;;;4961924;28;20404;-82
2022/06/09 10:18:27;;;;;;;3.83;3.42;;;19.80;99.90;;;;;;4951871;28;20475;-83
2022/06/09 10:21:13;;;;;;;4.43;3.30;;;19.90;99.90;;;;;;4966049;28;20409;-83
2022/06/09 10:24:07;;;;;;;4.00;3.55;;;20.10;99.90;;;;;;4964514;28;20434;-82
2022/06/09 10:26:57;;;;;;;4.35;3.75;;;20.30;99.90;;;;;;4998635;28;20409;-83
2022/06/09 10:30:10;;;;;;;4.53;3.30;;;20.30;99.90;;;;;;4954150;28;20410;-84
2022/06/09 10:32:53;;;;;;;4.72;3.38;;;20.30;99.90;;;;;;4961128;28;20402;-84
2022/06/09 10:35:44;;;;;;;4.05;3.17;;;20.40;99.90;;;;;;4956651;28;20939;-84
2022/06/09 10:38:39;;;;;;;4.78;3.40;;;20.60;99.90;;;;;;4973135;28;20518;-83
2022/06/09 10:41:13;;;;;;;5.15;3.40;;;20.70;99.90;;;;;;4946443;28;20411;-83
2022/06/09 10:43:57;;;;;;;4.57;3.50;;;20.90;99.90;;;;;;4968718;28;20449;-83
2022/06/09 10:55:14;;;;;;;4.10;3.70;;;20.90;99.90;;;;;;4970813;28;20429;-83
2022/06/09 10:55:31;;;;;;;3.70;3.40;;;21.00;99.90;;;;;;4944859;28;20929;-83
2022/06/09 10:58:15;;;;;;;3.88;3.10;;;20.80;99.90;;;;;;4972402;28;20461;-85
2022/06/09 11:00:47;;;;;;;3.25;2.72;;;20.80;99.90;;;;;;4971224;28;20409;-83
2022/06/09 11:03:25;;;;;;;3.45;2.88;;;21.00;99.90;;;;;;4966507;28;20414;-82
2022/06/09 11:06:09;;;;;;;3.30;3.00;;;20.90;99.90;;;;;;4966579;28;20391;-83
2022/06/09 11:09:21;;;;;;;4.03;3.63;;;21.00;99.90;;;;;;4969890;28;20411;-84
2022/06/09 11:12:01;;;;;;;5.73;3.60;;;21.10;99.90;;;;;;4930790;28;20502;-84
2022/06/09 11:14:54;;;;;;;4.35;3.50;;;21.00;99.90;;;;;;4969365;28;20417;-83
2022/06/09 11:17:44;;;;;;;3.63;3.30;;;21.20;99.90;;;;;;4969658;28;20481;-82
2022/06/09 11:20:22;;;;;;;4.60;3.30;;;21.10;99.90;;;;;;4965027;28;20405;-84
2022/06/09 11:23:04;;;;;;;5.65;3.47;;;21.00;99.90;;;;;;4951988;28;20456;-83
2022/06/09 11:25:57;;;;;;;5.55;3.53;;;21.00;99.90;;;;;;4970592;28;20528;-84
2022/06/09 11:28:37;;;;;;;3.90;3.30;;;21.00;99.90;;;;;;4944857;28;20414;-83
2022/06/09 11:31:13;;;;;;;4.00;3.10;;;21.10;99.90;;;;;;4948312;28;20410;-84
2022/06/09 11:34:24;;;;;;;4.00;2.95;;;21.20;99.90;;;;;;4937231;28;20919;-84
2022/06/09 11:37:09;;;;;;;5.43;3.30;;;21.10;99.90;;;;;;4947467;28;20925;-82
2022/06/09 11:40:25;;;;;;;5.35;3.65;;;21.10;99.90;;;;;;4946926;28;20416;-83
2022/06/09 11:43:08;;;;;;;5.10;3.28;;;21.00;99.90;;;;;;4946937;28;20948;-84
2022/06/09 11:45:42;;;;;;;3.23;2.83;;;21.00;99.90;;;;;;4950288;28;20909;-84
2022/06/09 11:48:23;;;;;;;3.43;3.10;;;21.00;99.90;;;;;;4949302;29;20392;-83
2022/06/09 11:50:52;;;;;;;3.50;3.20;;;21.10;99.90;;;;;;4949805;28;20408;-83
2022/06/09 11:53:27;;;;;;;3.47;3.17;;;21.40;99.90;;;;;;4946090;29;20410;-83
2022/06/09 11:56:40;;;;;;;4.00;3.17;;;21.40;99.90;;;;;;4949778;29;20416;-84
2022/06/09 11:59:43;;;;;;;5.15;3.22;;;21.60;99.90;;;;;;4949674;28;20404;-83
2022/06/09 12:02:26;;;;;;;4.20;3.30;;;21.50;99.90;;;;;;4947706;28;20466;-83
2022/06/09 12:05:00;;;;;;;5.45;3.88;;;21.40;99.90;;;;;;4958181;28;20405;-85
2022/06/09 12:07:46;;;;;;;5.50;3.60;;;21.60;99.90;;;;;;4941526;28;20412;-83
2022/06/09 12:10:54;;;;;;;4.60;3.58;;;22.00;99.90;;;;;;4948154;29;20409;-81
2022/06/09 12:13:27;;;;;;;4.68;3.60;;;22.20;99.90;;;;;;4946242;28;20474;-83
2022/06/09 12:16:21;;;;;;;3.73;3.10;;;22.40;99.90;;;;;;4953448;28;20412;-83
2022/06/09 12:19:05;;;;;;;3.70;3.40;;;22.60;99.90;;;;;;4945975;28;20414;-84
2022/06/09 12:21:37;;;;;;;4.70;3.60;;;22.90;99.90;;;;;;4954371;28;20407;-82
2022/06/09 12:24:14;;;;;;;3.87;3.57;;;22.90;99.90;;;;;;4940229;28;20399;-82
2022/06/09 12:26:44;;;;;;;5.72;3.65;;;22.90;99.90;;;;;;4957453;28;20406;-84
2022/06/09 12:29:37;;;;;;;5.43;3.50;;;23.10;99.90;;;;;;4956425;28;20406;-83
2022/06/09 12:32:10;;;;;;;5.25;3.60;;;23.10;99.90;;;;;;4956766;28;20404;-83
2022/06/09 12:34:50;;;;;;;4.47;3.70;;;23.00;99.90;;;;;;4961345;28;20412;-83
2022/06/09 12:37:22;;;;;;;4.27;3.27;;;23.10;99.90;;;;;;4972584;28;20489;-83
2022/06/09 12:40:07;;;;;;;3.42;3.13;;;23.10;99.90;;;;;;4972827;28;20398;-83
2022/06/09 12:42:49;;;;;;;4.13;3.25;;;23.00;99.90;;;;;;4971695;28;20450;-84
2022/06/09 12:45:27;;;;;;;3.80;3.00;;;23.10;99.90;;;;;;4962666;28;20446;-84
2022/06/09 12:48:14;;;;;;;4.07;2.97;;;23.30;99.90;;;;;;4978781;28;20506;-83
2022/06/09 12:50:48;;;;;;;3.92;2.70;;;23.40;99.90;;;;;;4969481;28;20438;-84
2022/06/09 12:53:26;;;;;;;3.00;2.70;;;23.40;99.90;;;;;;4962513;28;20447;-84
2022/06/09 12:55:59;;;;;;;4.18;2.80;;;23.50;99.90;;;;;;4970231;28;20418;-84
2022/06/09 12:58:37;;;;;;;3.10;2.80;;;23.50;99.90;;;;;;4966568;28;20442;-84
2022/06/09 13:01:11;;;;;;;3.10;2.80;;;23.50;99.90;;;;;;4955384;28;20484;-85
2022/06/09 13:03:50;;;;;;;5.13;3.15;;;23.30;99.90;;;;;;4971406;28;20918;-83
2022/06/09 13:06:31;;;;;;;2.80;2.60;;;23.30;99.90;;;;;;4958102;28;20410;-84
2022/06/09 13:09:27;;;;;;;2.83;2.63;;;23.10;99.90;;;;;;4976031;28;20410;-84
2022/06/09 13:15:08;;;;;;;3.97;2.90;;;23.00;99.90;;;;;;4982287;28;20409;-83
2022/06/09 13:17:38;;;;;;;3.28;2.97;;;23.30;99.90;;;;;;4970868;28;20395;-83
2022/06/09 13:20:15;;;;;;;5.10;3.05;;;23.10;99.90;;;;;;4969092;28;20415;-82
2022/06/09 13:22:43;;;;;;;3.22;2.88;;;23.00;99.90;;;;;;4968737;28;20501;-84
2022/06/09 13:25:16;;;;;;;4.20;3.10;;;22.80;99.90;;;;;;4946608;28;20445;-84
2022/06/09 13:27:45;;;;;;;4.55;3.00;;;22.60;99.90;;;;;;4973747;28;20891;-84
2022/06/09 13:30:41;;;;;;;4.32;3.10;;;22.60;99.90;;;;;;4971123;28;20746;-83
2022/06/09 13:33:35;;;;;;;4.30;2.85;;;22.50;99.90;;;;;;4962514;28;20423;-82
2022/06/09 13:36:38;;;;;;;5.20;3.00;;;22.40;99.90;;;;;;4957984;28;20410;-84
2022/06/09 13:39:27;;;;;;;4.35;2.72;;;22.40;99.90;;;;;;4956187;28;20417;-83
2022/06/09 13:42:03;;;;;;;3.90;2.70;;;22.40;99.90;;;;;;4955298;28;20805;-83
2022/06/09 13:44:37;;;;;;;5.28;2.75;;;22.40;99.90;;;;;;4951834;28;20393;-83
2022/06/09 13:47:31;;;;;;;3.70;2.80;;;22.60;99.90;;;;;;4957623;28;20932;-83
2022/06/09 13:50:05;;;;;;;3.42;2.80;;;23.00;99.90;;;;;;4936259;29;20409;-82
2022/06/09 13:52:33;;;;;;;3.78;3.10;;;23.10;99.90;;;;;;4950304;28;20419;-85